Time;durP1;ratioP1;P1;durP2;ratioP2;P2;SDS_P1;SDS_P2;PMS_P1;PMS_P2;Temp;Humidity;BMP_temperature;BMP_pressure;BME280_temperature;BME280_humidity;BME280_pressure;Samples;Min_cycle;Max_cycle;Signal;HPM_P1;HPM_P2
2021/11/16 00:02:06;;;;;;;23.00;17.13;;;;;;;;;;5107410;28;20016;-71
2021/11/16 00:04:32;;;;;;;27.95;17.20;;;;;;;;;;5102071;28;20471;-73
2021/11/16 00:06:58;;;;;;;23.88;17.83;;;;;;;;;;5110556;28;20511;-72
2021/11/16 00:09:24;;;;;;;23.73;16.98;;;;;;;;;;5088598;28;20375;-75
2021/11/16 00:11:50;;;;;;;25.40;17.20;;;;;;;;;;5092415;28;20062;-75
2021/11/16 00:14:17;;;;;;;24.33;16.08;;;;;;;;;;5094188;28;20024;-76
2021/11/16 00:16:43;;;;;;;23.88;17.23;;;;;;;;;;5078730;28;20047;-76
2021/11/16 00:19:13;;;;;;;24.58;17.60;;;;;;;;;;5079434;28;20036;-73
2021/11/16 00:21:41;;;;;;;22.75;16.30;;;;;;;;;;5077660;28;20115;-75
2021/11/16 00:24:19;;;;;;;24.15;16.55;;;;;;;;;;5072825;28;20376;-75
2021/11/16 00:26:45;;;;;;;22.42;15.93;;;;;;;;;;5074195;28;20024;-75
2021/11/16 00:29:12;;;;;;;23.00;17.02;;;;;;;;;;5074057;28;20024;-70
2021/11/16 00:31:38;;;;;;;23.83;17.17;;;;;;;;;;5074445;28;20060;-74
2021/11/16 00:34:05;;;;;;;25.17;16.77;;;;;;;;;;5086239;28;20500;-74
2021/11/16 00:36:32;;;;;;;23.58;17.33;;;;;;;;;;5087829;28;20093;-74
2021/11/16 00:38:58;;;;;;;22.85;16.45;;;;;;;;;;5095600;28;20555;-75
2021/11/16 00:41:24;;;;;;;25.50;17.67;;;;;;;;;;5112968;28;20073;-75
2021/11/16 00:43:51;;;;;;;23.80;17.33;;;;;;;;;;5107832;28;20110;-78
2021/11/16 00:46:17;;;;;;;26.27;17.75;;;;;;;;;;5085017;28;20475;-73
2021/11/16 00:48:43;;;;;;;27.23;17.55;;;;;;;;;;5101710;28;20020;-75
2021/11/16 00:51:10;;;;;;;24.88;17.98;;;;;;;;;;5097152;28;20047;-74
2021/11/16 00:53:37;;;;;;;25.95;17.05;;;;;;;;;;5075810;28;20016;-71
2021/11/16 00:56:04;;;;;;;26.20;17.60;;;;;;;;;;5103528;28;20547;-70
2021/11/16 00:58:31;;;;;;;25.75;17.67;;;;;;;;;;5100578;28;20038;-71
2021/11/16 01:00:57;;;;;;;24.02;16.77;;;;;;;;;;5093731;28;20058;-76
2021/11/16 01:03:24;;;;;;;45.42;17.92;;;;;;;;;;5093709;28;20043;-70
2021/11/16 01:05:51;;;;;;;30.48;16.90;;;;;;;;;;5096236;28;20028;-72
2021/11/16 01:08:17;;;;;;;28.02;16.88;;;;;;;;;;5113974;28;20015;-72
2021/11/16 01:10:44;;;;;;;27.15;17.30;;;;;;;;;;5104771;28;20020;-73
2021/11/16 01:13:11;;;;;;;27.38;17.65;;;;;;;;;;5093980;28;20047;-71
2021/11/16 01:15:40;;;;;;;27.50;17.35;;;;;;;;;;5080614;28;20026;-71
2021/11/16 01:18:06;;;;;;;27.02;17.90;;;;;;;;;;5113808;28;20106;-72
2021/11/16 01:20:32;;;;;;;28.58;16.50;;;;;;;;;;5113810;28;20031;-71
2021/11/16 01:23:00;;;;;;;25.55;17.92;;;;;;;;;;5103374;28;20024;-71
2021/11/16 01:25:26;;;;;;;27.33;17.48;;;;;;;;;;5075081;28;20441;-73
2021/11/16 01:27:57;;;;;;;26.00;17.75;;;;;;;;;;5074941;28;20035;-71
2021/11/16 01:30:26;;;;;;;25.30;17.65;;;;;;;;;;5093613;28;20024;-70
2021/11/16 01:33:27;;;;;;;25.83;18.00;;;;;;;;;;5092913;28;20023;-70
2021/11/16 01:35:46;;;;;;;27.13;18.45;;;;;;;;;;5088874;28;20039;-71
2021/11/16 01:38:15;;;;;;;30.77;17.38;;;;;;;;;;5074479;28;20067;-73
2021/11/16 01:40:42;;;;;;;27.63;17.50;;;;;;;;;;5092740;28;20153;-73
2021/11/16 01:43:09;;;;;;;29.17;17.92;;;;;;;;;;5092491;28;20483;-71
2021/11/16 01:45:36;;;;;;;29.88;16.85;;;;;;;;;;5092952;28;20676;-73
2021/11/16 01:48:03;;;;;;;27.40;17.30;;;;;;;;;;5093357;28;20074;-74
2021/11/16 01:50:29;;;;;;;25.70;17.27;;;;;;;;;;5092650;28;20016;-72
2021/11/16 01:52:55;;;;;;;25.15;17.48;;;;;;;;;;5081995;28;20020;-74
2021/11/16 01:55:22;;;;;;;26.52;17.73;;;;;;;;;;5092648;28;20031;-74
2021/11/16 01:57:49;;;;;;;26.02;17.13;;;;;;;;;;5092287;28;20024;-73
2021/11/16 02:00:17;;;;;;;27.85;17.38;;;;;;;;;;5090244;28;20036;-74
2021/11/16 02:02:44;;;;;;;26.52;17.42;;;;;;;;;;5112624;28;20023;-73
2021/11/16 02:05:11;;;;;;;25.05;17.73;;;;;;;;;;5092924;28;20506;-73
2021/11/16 02:07:37;;;;;;;26.70;18.42;;;;;;;;;;5092357;28;20036;-72
2021/11/16 02:10:04;;;;;;;22.45;16.17;;;;;;;;;;5092287;28;20471;-73
2021/11/16 02:12:30;;;;;;;37.03;18.08;;;;;;;;;;5073917;28;20378;-70
2021/11/16 02:14:56;;;;;;;32.20;17.45;;;;;;;;;;5092133;28;20024;-71
2021/11/16 02:17:22;;;;;;;25.63;16.20;;;;;;;;;;5073899;28;20031;-73
2021/11/16 02:19:48;;;;;;;25.40;17.05;;;;;;;;;;5081427;28;20063;-68
2021/11/16 02:22:14;;;;;;;25.58;17.48;;;;;;;;;;5112474;28;20030;-74
2021/11/16 02:24:40;;;;;;;27.95;17.55;;;;;;;;;;5112448;28;20171;-75
2021/11/16 02:27:07;;;;;;;23.73;16.77;;;;;;;;;;5112366;28;20104;-70
2021/11/16 02:29:33;;;;;;;28.90;17.90;;;;;;;;;;5112321;28;20024;-73
2021/11/16 02:31:59;;;;;;;29.25;17.00;;;;;;;;;;5112352;28;20024;-68
2021/11/16 02:34:25;;;;;;;25.40;17.20;;;;;;;;;;5112213;28;20028;-70
2021/11/16 02:36:52;;;;;;;25.85;17.65;;;;;;;;;;5111594;28;20023;-73
2021/11/16 02:39:19;;;;;;;26.85;18.27;;;;;;;;;;5093755;28;20055;-70
2021/11/16 02:41:53;;;;;;;26.67;16.40;;;;;;;;;;5106928;28;20471;-70
2021/11/16 02:44:19;;;;;;;32.40;18.27;;;;;;;;;;5091949;28;20121;-71
2021/11/16 02:46:46;;;;;;;27.33;16.48;;;;;;;;;;5091862;28;20053;-70
2021/11/16 02:49:12;;;;;;;27.88;17.88;;;;;;;;;;5091815;28;20016;-73
2021/11/16 02:51:39;;;;;;;26.38;17.95;;;;;;;;;;5093215;28;20032;-71
2021/11/16 02:54:12;;;;;;;27.52;16.98;;;;;;;;;;5112006;28;20060;-72
2021/11/16 02:56:39;;;;;;;29.90;18.30;;;;;;;;;;5112005;28;20051;-72
2021/11/16 02:59:05;;;;;;;27.42;17.73;;;;;;;;;;5111786;28;20092;-72
2021/11/16 03:01:31;;;;;;;25.75;17.60;;;;;;;;;;5112061;28;20016;-71
2021/11/16 03:03:57;;;;;;;27.35;17.70;;;;;;;;;;5111735;28;20035;-73
2021/11/16 03:06:23;;;;;;;24.98;16.63;;;;;;;;;;5112118;28;20119;-74
2021/11/16 03:08:49;;;;;;;23.40;17.48;;;;;;;;;;5111938;28;20030;-70
2021/11/16 03:11:16;;;;;;;27.15;17.83;;;;;;;;;;5111904;28;20110;-73
2021/11/16 03:13:43;;;;;;;26.13;17.25;;;;;;;;;;5111848;28;20424;-71
2021/11/16 03:16:15;;;;;;;26.13;17.58;;;;;;;;;;5111941;28;20028;-72
2021/11/16 03:18:44;;;;;;;24.30;16.85;;;;;;;;;;5111772;28;20088;-72
2021/11/16 03:21:12;;;;;;;26.10;17.02;;;;;;;;;;5093455;28;20027;-73
2021/11/16 03:23:38;;;;;;;24.63;16.95;;;;;;;;;;5111651;28;20374;-72
2021/11/16 03:26:04;;;;;;;25.65;16.58;;;;;;;;;;5093664;28;20107;-73
2021/11/16 03:28:33;;;;;;;25.42;17.55;;;;;;;;;;5111699;28;20482;-73
2021/11/16 03:31:08;;;;;;;25.65;16.45;;;;;;;;;;5098888;28;20020;-71
2021/11/16 03:33:34;;;;;;;25.23;17.45;;;;;;;;;;5092536;28;20552;-72
2021/11/16 03:36:00;;;;;;;23.25;15.98;;;;;;;;;;5091717;28;20364;-68
2021/11/16 03:38:27;;;;;;;24.23;16.38;;;;;;;;;;5073129;28;20044;-71
2021/11/16 03:40:55;;;;;;;24.23;17.08;;;;;;;;;;5091622;28;20028;-71
2021/11/16 03:43:22;;;;;;;28.23;16.73;;;;;;;;;;5091418;28;20020;-71
2021/11/16 03:45:49;;;;;;;24.17;17.38;;;;;;;;;;5073395;28;20036;-73
2021/11/16 03:48:16;;;;;;;25.70;17.17;;;;;;;;;;5091515;28;20613;-76
2021/11/16 03:50:43;;;;;;;26.85;17.83;;;;;;;;;;5091462;28;20028;-73
2021/11/16 03:53:10;;;;;;;25.88;17.52;;;;;;;;;;5091037;28;20024;-71
2021/11/16 03:55:37;;;;;;;24.10;17.58;;;;;;;;;;5091260;28;20027;-71
2021/11/16 03:58:04;;;;;;;24.52;16.33;;;;;;;;;;5091216;28;20098;-74
2021/11/16 04:00:33;;;;;;;26.63;16.65;;;;;;;;;;5072802;28;20123;-72
2021/11/16 04:03:00;;;;;;;25.85;16.67;;;;;;;;;;5073221;28;20085;-72
2021/11/16 04:05:26;;;;;;;24.98;17.40;;;;;;;;;;5091137;28;20024;-73
2021/11/16 04:07:56;;;;;;;25.63;17.60;;;;;;;;;;5091048;28;20038;-72
2021/11/16 04:10:23;;;;;;;23.60;16.85;;;;;;;;;;5091119;28;20024;-72
2021/11/16 04:12:49;;;;;;;30.30;17.77;;;;;;;;;;5091065;28;20110;-72
2021/11/16 04:15:16;;;;;;;23.05;16.60;;;;;;;;;;5091146;28;20024;-69
2021/11/16 04:17:43;;;;;;;25.63;16.95;;;;;;;;;;5094779;28;20032;-74
2021/11/16 04:20:14;;;;;;;24.10;17.35;;;;;;;;;;5094783;28;20475;-74
2021/11/16 04:22:40;;;;;;;21.85;16.17;;;;;;;;;;5076365;28;20031;-69
2021/11/16 04:25:07;;;;;;;24.20;16.50;;;;;;;;;;5094783;28;20494;-73
2021/11/16 04:27:33;;;;;;;26.02;17.23;;;;;;;;;;5076445;28;20067;-71
2021/11/16 04:29:59;;;;;;;23.08;16.42;;;;;;;;;;5094664;28;20356;-73
2021/11/16 04:32:25;;;;;;;23.17;16.08;;;;;;;;;;5094561;28;20023;-73
2021/11/16 04:34:51;;;;;;;24.35;16.17;;;;;;;;;;5094511;28;20032;-74
2021/11/16 04:37:17;;;;;;;22.92;16.50;;;;;;;;;;5094484;28;20031;-69
2021/11/16 04:39:43;;;;;;;24.13;16.60;;;;;;;;;;5094115;28;20403;-74
2021/11/16 04:42:10;;;;;;;23.63;17.17;;;;;;;;;;5093837;28;20020;-69
2021/11/16 04:44:37;;;;;;;23.05;16.73;;;;;;;;;;5094366;28;20024;-74
2021/11/16 04:47:03;;;;;;;24.75;17.02;;;;;;;;;;5094234;28;20031;-73
2021/11/16 04:49:40;;;;;;;23.83;17.20;;;;;;;;;;5094144;28;20547;-69
2021/11/16 04:52:35;;;;;;;25.80;17.02;;;;;;;;;;5099402;28;20065;-70
2021/11/16 05:02:42;;;;;;;23.00;16.10;;;;;;;;;;5114690;28;20032;-73
2021/11/16 05:05:11;;;;;;;22.80;15.80;;;;;;;;;;5114549;28;20091;-74
2021/11/16 05:07:39;;;;;;;21.00;15.55;;;;;;;;;;5096148;28;20053;-73
2021/11/16 05:10:07;;;;;;;26.52;15.98;;;;;;;;;;5114664;28;20047;-73
2021/11/16 05:12:33;;;;;;;28.48;16.70;;;;;;;;;;5114130;28;20651;-74
2021/11/16 05:15:01;;;;;;;26.10;16.60;;;;;;;;;;5114510;28;20383;-70
2021/11/16 05:17:27;;;;;;;27.35;17.55;;;;;;;;;;5114156;28;20031;-73
2021/11/16 05:19:55;;;;;;;27.67;17.73;;;;;;;;;;5113987;28;20543;-68
2021/11/16 05:22:21;;;;;;;22.00;16.48;;;;;;;;;;5095891;28;20394;-72
2021/11/16 05:24:47;;;;;;;22.02;16.25;;;;;;;;;;5113967;28;20016;-73
2021/11/16 05:27:15;;;;;;;24.48;16.20;;;;;;;;;;5112823;28;20037;-69
2021/11/16 05:29:41;;;;;;;23.60;16.27;;;;;;;;;;5113671;28;20015;-68
2021/11/16 05:32:07;;;;;;;26.42;18.23;;;;;;;;;;5113654;28;20020;-70
2021/11/16 05:34:34;;;;;;;26.08;17.23;;;;;;;;;;5113779;28;20027;-71
2021/11/16 05:37:00;;;;;;;23.85;16.45;;;;;;;;;;5095478;28;20631;-74
2021/11/16 05:39:26;;;;;;;22.33;15.55;;;;;;;;;;5113496;28;20070;-72
2021/11/16 05:41:52;;;;;;;22.83;15.95;;;;;;;;;;5095383;28;20471;-75
2021/11/16 05:44:18;;;;;;;24.58;15.77;;;;;;;;;;5113689;28;20028;-70
2021/11/16 05:46:44;;;;;;;25.88;17.35;;;;;;;;;;5095164;28;20061;-72
2021/11/16 05:49:10;;;;;;;23.33;16.23;;;;;;;;;;5095264;28;20019;-68
2021/11/16 05:51:36;;;;;;;25.02;16.35;;;;;;;;;;5112173;28;20102;-73
2021/11/16 05:54:03;;;;;;;24.08;16.65;;;;;;;;;;5075018;28;20689;-73
2021/11/16 05:56:31;;;;;;;24.00;16.45;;;;;;;;;;5093101;28;20035;-70
2021/11/16 05:58:57;;;;;;;24.88;17.05;;;;;;;;;;5092950;28;20032;-75
2021/11/16 06:01:27;;;;;;;23.77;16.65;;;;;;;;;;5092812;28;20016;-74
2021/11/16 06:03:54;;;;;;;31.35;17.83;;;;;;;;;;5092801;28;20107;-73
2021/11/16 06:06:25;;;;;;;23.35;16.98;;;;;;;;;;5092821;28;20020;-71
2021/11/16 06:08:52;;;;;;;22.75;16.02;;;;;;;;;;5092735;28;20428;-71
2021/11/16 06:11:20;;;;;;;22.45;15.43;;;;;;;;;;5074464;28;20115;-72
2021/11/16 06:13:47;;;;;;;22.63;16.83;;;;;;;;;;5074334;28;20040;-72
2021/11/16 06:16:13;;;;;;;23.67;15.60;;;;;;;;;;5074558;28;20085;-71
2021/11/16 06:18:39;;;;;;;24.75;17.55;;;;;;;;;;5092568;28;20428;-72
2021/11/16 06:21:05;;;;;;;25.25;16.77;;;;;;;;;;5092525;28;20034;-71
2021/11/16 06:23:33;;;;;;;24.20;16.13;;;;;;;;;;5092342;28;20024;-73
2021/11/16 06:26:00;;;;;;;26.65;17.42;;;;;;;;;;5092449;28;20024;-74
2021/11/16 06:28:26;;;;;;;24.80;16.63;;;;;;;;;;5092445;28;20019;-74
2021/11/16 06:30:52;;;;;;;23.90;16.85;;;;;;;;;;5092318;28;20036;-74
2021/11/16 06:33:22;;;;;;;24.38;16.80;;;;;;;;;;5092150;28;20024;-71
2021/11/16 06:35:48;;;;;;;24.02;16.40;;;;;;;;;;5073793;28;20426;-74
2021/11/16 06:38:14;;;;;;;22.33;16.73;;;;;;;;;;5091762;28;20020;-70
2021/11/16 06:40:41;;;;;;;22.85;15.95;;;;;;;;;;5091805;28;20388;-69
2021/11/16 06:43:07;;;;;;;24.17;17.02;;;;;;;;;;5087498;28;20433;-70
2021/11/16 06:45:33;;;;;;;25.33;16.25;;;;;;;;;;5112173;28;20372;-74
2021/11/16 06:47:59;;;;;;;24.90;17.17;;;;;;;;;;5112265;28;20015;-72
2021/11/16 06:50:25;;;;;;;23.08;16.50;;;;;;;;;;5112158;28;20031;-69
2021/11/16 06:52:51;;;;;;;23.80;16.15;;;;;;;;;;5093826;28;20043;-74
2021/11/16 06:55:17;;;;;;;25.77;16.83;;;;;;;;;;5112260;28;20038;-68
2021/11/16 06:57:46;;;;;;;26.13;17.48;;;;;;;;;;5112098;28;20096;-69
2021/11/16 07:00:13;;;;;;;24.05;16.38;;;;;;;;;;5093907;28;20061;-70
2021/11/16 07:02:40;;;;;;;21.38;13.90;;;;;;;;;;5112217;28;20087;-70
2021/11/16 07:05:10;;;;;;;21.08;14.05;;;;;;;;;;5111907;28;20072;-71
2021/11/16 07:07:44;;;;;;;21.83;13.93;;;;;;;;;;5111993;28;20023;-72
2021/11/16 07:10:11;;;;;;;18.67;12.88;;;;;;;;;;5093946;28;20069;-69
2021/11/16 07:12:38;;;;;;;17.65;12.55;;;;;;;;;;5093842;28;20543;-73
2021/11/16 07:15:04;;;;;;;21.35;13.50;;;;;;;;;;5093896;28;20503;-72
2021/11/16 07:17:30;;;;;;;22.40;13.35;;;;;;;;;;5111907;28;20034;-68
2021/11/16 07:19:59;;;;;;;18.77;12.60;;;;;;;;;;5111853;28;20035;-72
2021/11/16 07:22:30;;;;;;;19.63;13.40;;;;;;;;;;5111669;28;20039;-72
2021/11/16 07:25:05;;;;;;;19.90;13.23;;;;;;;;;;5111862;28;20033;-72
2021/11/16 07:27:34;;;;;;;18.38;11.75;;;;;;;;;;5093565;28;20020;-72
2021/11/16 07:30:00;;;;;;;17.60;11.65;;;;;;;;;;5111725;28;20504;-73
2021/11/16 07:32:33;;;;;;;19.23;13.18;;;;;;;;;;5091830;28;20032;-72
2021/11/16 07:35:02;;;;;;;20.58;13.35;;;;;;;;;;5091194;28;20046;-71
2021/11/16 07:37:30;;;;;;;18.45;12.65;;;;;;;;;;5091196;28;20016;-74
2021/11/16 07:40:17;;;;;;;18.20;11.63;;;;;;;;;;5091092;28;20062;-75
2021/11/16 07:42:55;;;;;;;20.77;13.68;;;;;;;;;;5091202;28;20024;-74
2021/11/16 07:45:24;;;;;;;19.08;13.93;;;;;;;;;;5091391;28;20424;-74
2021/11/16 07:47:50;;;;;;;19.92;12.95;;;;;;;;;;5091451;28;20479;-74
2021/11/16 07:50:35;;;;;;;20.17;13.73;;;;;;;;;;5073276;28;20032;-74
2021/11/16 07:53:07;;;;;;;18.52;12.60;;;;;;;;;;5095225;28;20087;-74
2021/11/16 07:55:33;;;;;;;22.40;13.60;;;;;;;;;;5095141;28;20435;-73
2021/11/16 07:58:03;;;;;;;19.63;13.23;;;;;;;;;;5095279;28;20745;-74
2021/11/16 08:00:30;;;;;;;22.75;13.95;;;;;;;;;;5094973;28;20063;-73
2021/11/16 08:03:04;;;;;;;22.02;13.00;;;;;;;;;;5095377;28;20467;-74
2021/11/16 08:05:46;;;;;;;19.83;12.45;;;;;;;;;;5095004;28;20023;-75
2021/11/16 08:12:03;;;;;;;22.45;14.60;;;;;;;;;;5094953;28;20024;-75
2021/11/16 08:14:17;;;;;;;20.23;14.05;;;;;;;;;;5062729;28;20027;-75
2021/11/16 08:16:49;;;;;;;24.42;14.50;;;;;;;;;;5094788;28;20037;-75
2021/11/16 08:19:17;;;;;;;22.02;13.82;;;;;;;;;;5076537;28;20032;-73
2021/11/16 08:21:45;;;;;;;21.88;13.65;;;;;;;;;;5094773;28;20024;-75
2021/11/16 08:24:14;;;;;;;20.27;14.60;;;;;;;;;;5094839;28;20059;-74
2021/11/16 08:26:42;;;;;;;22.23;14.25;;;;;;;;;;5094709;28;20031;-74
2021/11/16 08:29:09;;;;;;;23.10;14.43;;;;;;;;;;5094690;28;20042;-74
2021/11/16 08:31:40;;;;;;;18.17;12.52;;;;;;;;;;5094424;28;20020;-73
2021/11/16 08:34:07;;;;;;;19.70;13.63;;;;;;;;;;5076378;28;20115;-74
2021/11/16 08:36:45;;;;;;;19.35;13.52;;;;;;;;;;5094392;28;20021;-74
2021/11/16 08:39:12;;;;;;;18.60;12.98;;;;;;;;;;5093996;28;20047;-70
2021/11/16 08:41:39;;;;;;;21.50;14.80;;;;;;;;;;5076488;28;20353;-74
2021/11/16 08:44:13;;;;;;;20.10;14.60;;;;;;;;;;5114707;28;20020;-74
2021/11/16 08:46:40;;;;;;;20.40;13.70;;;;;;;;;;5114702;28;20026;-70
2021/11/16 08:49:06;;;;;;;22.65;15.20;;;;;;;;;;5114613;28;20478;-75
2021/11/16 08:51:39;;;;;;;35.58;14.73;;;;;;;;;;5095450;28;20015;-74
2021/11/16 08:54:05;;;;;;;;;;;;;;;;;;5094642;28;20039;-76
2021/11/16 08:56:35;;;;;;;22.92;13.73;;;;;;;;;;5094036;28;19904;-75
2021/11/16 08:59:10;;;;;;;23.20;13.30;;;;;;;;;;5093937;28;20479;-77
2021/11/16 09:01:36;;;;;;;25.13;14.00;;;;;;;;;;5093594;28;20039;-72
2021/11/16 09:04:04;;;;;;;21.13;13.70;;;;;;;;;;5075848;28;20020;-76
2021/11/16 09:06:32;;;;;;;23.58;14.35;;;;;;;;;;5093999;28;20024;-75
2021/11/16 09:09:14;;;;;;;27.15;14.50;;;;;;;;;;5094038;28;20012;-75
2021/11/16 09:11:53;;;;;;;22.52;14.07;;;;;;;;;;5093798;28;20027;-75
2021/11/16 09:14:19;;;;;;;20.85;14.45;;;;;;;;;;5075832;28;20112;-75
2021/11/16 09:16:45;;;;;;;21.48;14.13;;;;;;;;;;5093723;28;20548;-75
2021/11/16 09:19:44;;;;;;;20.42;14.57;;;;;;;;;;5093717;28;20115;-75
2021/11/16 09:22:17;;;;;;;23.15;13.80;;;;;;;;;;5038116;28;20032;-74
2021/11/16 09:24:49;;;;;;;21.55;13.25;;;;;;;;;;5093674;28;20103;-74
2021/11/16 09:30:10;;;;;;;21.50;12.80;;;;;;;;;;5075887;28;20300;-74
2021/11/16 09:32:37;;;;;;;20.92;13.13;;;;;;;;;;5093330;28;20108;-75
2021/11/16 09:35:03;;;;;;;23.23;14.20;;;;;;;;;;5093380;28;20024;-75
2021/11/16 09:37:30;;;;;;;21.42;13.60;;;;;;;;;;5075118;28;20036;-74
2021/11/16 09:40:03;;;;;;;20.70;13.52;;;;;;;;;;5092609;28;20040;-75
2021/11/16 09:42:29;;;;;;;19.83;13.57;;;;;;;;;;5093212;28;20024;-74
2021/11/16 09:45:03;;;;;;;22.77;13.68;;;;;;;;;;5093358;28;20020;-75
2021/11/16 09:47:34;;;;;;;21.05;13.38;;;;;;;;;;5093186;28;20027;-74
2021/11/16 09:50:02;;;;;;;19.13;13.32;;;;;;;;;;5093083;28;20027;-74
2021/11/16 09:52:28;;;;;;;21.42;14.18;;;;;;;;;;5092922;28;20091;-74
2021/11/16 09:54:57;;;;;;;21.00;12.82;;;;;;;;;;5092892;28;20104;-74
2021/11/16 09:57:43;;;;;;;21.52;14.02;;;;;;;;;;5092852;28;20027;-75
2021/11/16 10:00:12;;;;;;;23.20;14.88;;;;;;;;;;5092990;28;20028;-74
2021/11/16 10:02:43;;;;;;;22.23;15.18;;;;;;;;;;5074733;28;20031;-75
2021/11/16 10:05:22;;;;;;;21.85;14.63;;;;;;;;;;5092730;28;20020;-76
2021/11/16 10:07:49;;;;;;;23.23;13.90;;;;;;;;;;5092608;28;20032;-76
2021/11/16 10:10:16;;;;;;;21.73;13.30;;;;;;;;;;5092732;28;20028;-74
2021/11/16 10:12:43;;;;;;;20.63;14.52;;;;;;;;;;5092653;28;20047;-75
2021/11/16 10:15:13;;;;;;;25.65;16.45;;;;;;;;;;5091807;28;20028;-74
2021/11/16 10:17:39;;;;;;;24.73;14.73;;;;;;;;;;5092322;28;20039;-74
2021/11/16 10:20:05;;;;;;;22.35;16.08;;;;;;;;;;5092489;28;20032;-74
2021/11/16 10:22:31;;;;;;;21.83;14.98;;;;;;;;;;5092511;28;20020;-75
2021/11/16 10:25:33;;;;;;;22.40;15.05;;;;;;;;;;5092415;28;20053;-75
2021/11/16 10:28:05;;;;;;;24.23;14.82;;;;;;;;;;5009708;28;20100;-68
2021/11/16 10:30:32;;;;;;;25.73;15.77;;;;;;;;;;5079524;28;20382;-72
2021/11/16 10:33:09;;;;;;;22.15;15.70;;;;;;;;;;5092205;28;20016;-72
2021/11/16 10:35:37;;;;;;;23.88;14.25;;;;;;;;;;5091977;28;20069;-76
2021/11/16 10:38:05;;;;;;;22.77;15.48;;;;;;;;;;5091895;28;20099;-73
2021/11/16 10:40:31;;;;;;;24.30;16.13;;;;;;;;;;5092116;28;20051;-75
2021/11/16 10:42:59;;;;;;;25.48;15.13;;;;;;;;;;5092217;28;20020;-75
2021/11/16 10:45:27;;;;;;;21.80;15.13;;;;;;;;;;5091856;28;20091;-74
2021/11/16 10:47:56;;;;;;;22.75;13.60;;;;;;;;;;5092003;28;20020;-76
2021/11/16 10:50:28;;;;;;;20.95;14.48;;;;;;;;;;5092008;28;20035;-75
2021/11/16 10:53:05;;;;;;;23.90;15.00;;;;;;;;;;5073618;28;20028;-75
2021/11/16 10:55:52;;;;;;;21.55;14.00;;;;;;;;;;5091982;28;20048;-71
2021/11/16 10:58:19;;;;;;;24.33;15.63;;;;;;;;;;5091970;28;20059;-71
2021/11/16 11:00:54;;;;;;;22.27;14.95;;;;;;;;;;5091795;28;20035;-74
2021/11/16 11:03:21;;;;;;;17.40;13.13;;;;;;;;;;5091669;28;20051;-73
2021/11/16 11:05:48;;;;;;;21.83;14.68;;;;;;;;;;5091828;28;20104;-73
2021/11/16 11:08:28;;;;;;;25.80;15.70;;;;;;;;;;5091796;28;20016;-72
2021/11/16 11:10:54;;;;;;;27.88;16.05;;;;;;;;;;5073555;28;20024;-73
2021/11/16 11:13:25;;;;;;;21.80;15.27;;;;;;;;;;5073417;28;20024;-73
2021/11/16 11:15:52;;;;;;;23.05;16.88;;;;;;;;;;5091847;28;20017;-73
2021/11/16 11:18:32;;;;;;;23.30;16.48;;;;;;;;;;5073535;28;20352;-73
2021/11/16 11:20:59;;;;;;;27.38;17.10;;;;;;;;;;5091420;28;20169;-71
2021/11/16 11:23:29;;;;;;;28.25;19.30;;;;;;;;;;5091524;28;20416;-69
2021/11/16 11:26:14;;;;;;;27.15;16.52;;;;;;;;;;5091683;28;20016;-73
2021/11/16 11:28:42;;;;;;;21.95;15.25;;;;;;;;;;5091541;28;20020;-74
2021/11/16 11:31:25;;;;;;;25.33;15.50;;;;;;;;;;5073653;28;20030;-69
2021/11/16 11:33:51;;;;;;;23.25;15.35;;;;;;;;;;5073363;28;20046;-72
2021/11/16 11:36:18;;;;;;;24.42;16.08;;;;;;;;;;5073569;28;20506;-73
2021/11/16 11:38:44;;;;;;;25.10;16.13;;;;;;;;;;5091132;28;20433;-73
2021/11/16 11:41:10;;;;;;;24.55;16.25;;;;;;;;;;5091268;28;20050;-73
2021/11/16 11:43:36;;;;;;;20.55;14.60;;;;;;;;;;5091295;28;20024;-73
2021/11/16 11:46:02;;;;;;;27.25;17.08;;;;;;;;;;5091346;28;20024;-73
2021/11/16 11:48:28;;;;;;;25.40;15.90;;;;;;;;;;5073236;28;20025;-70
2021/11/16 11:51:00;;;;;;;24.13;15.40;;;;;;;;;;5091332;28;20089;-71
2021/11/16 11:53:31;;;;;;;21.63;15.35;;;;;;;;;;5107647;28;20028;-71
2021/11/16 11:56:00;;;;;;;26.65;17.60;;;;;;;;;;5111776;28;20030;-74
2021/11/16 11:58:27;;;;;;;25.77;16.52;;;;;;;;;;5111623;28;20059;-72
2021/11/16 12:00:55;;;;;;;25.35;15.68;;;;;;;;;;5111363;28;20036;-68
2021/11/16 12:03:22;;;;;;;24.02;16.33;;;;;;;;;;5111278;28;20047;-73
2021/11/16 12:05:49;;;;;;;25.52;15.43;;;;;;;;;;5111390;28;20023;-74
2021/11/16 12:08:15;;;;;;;25.08;15.75;;;;;;;;;;5111397;28;20020;-74
2021/11/16 12:10:43;;;;;;;26.52;16.63;;;;;;;;;;5110865;28;20030;-67
2021/11/16 12:13:09;;;;;;;24.05;15.57;;;;;;;;;;5111377;28;20034;-69
2021/11/16 12:15:35;;;;;;;24.15;15.60;;;;;;;;;;5093136;28;20020;-72
2021/11/16 12:18:02;;;;;;;23.02;15.52;;;;;;;;;;5111403;28;20020;-69
2021/11/16 12:20:40;;;;;;;26.35;15.93;;;;;;;;;;5092920;28;20035;-72
2021/11/16 12:23:11;;;;;;;22.95;14.02;;;;;;;;;;5111022;28;20030;-73
2021/11/16 12:25:37;;;;;;;22.98;15.10;;;;;;;;;;5111325;28;20091;-75
2021/11/16 12:28:22;;;;;;;25.88;16.73;;;;;;;;;;5111332;28;20416;-68
2021/11/16 12:30:48;;;;;;;24.80;16.77;;;;;;;;;;5111211;28;20462;-76
2021/11/16 12:33:34;;;;;;;24.42;15.23;;;;;;;;;;5111309;28;20024;-77
2021/11/16 12:36:00;;;;;;;25.92;16.58;;;;;;;;;;5111424;28;20023;-76
2021/11/16 12:38:33;;;;;;;21.13;13.88;;;;;;;;;;5114419;28;20425;-76
2021/11/16 12:40:59;;;;;;;;;;;;;;;;;;5096802;28;20069;-76
2021/11/16 12:43:28;;;;;;;23.13;14.63;;;;;;;;;;5114609;28;19910;-74
2021/11/16 12:45:59;;;;;;;21.45;13.40;;;;;;;;;;5114878;28;20569;-75
2021/11/16 12:48:52;;;;;;;24.65;15.77;;;;;;;;;;5114860;28;20015;-75
2021/11/16 12:51:31;;;;;;;20.95;14.45;;;;;;;;;;5114692;28;20089;-74
2021/11/16 12:53:58;;;;;;;22.38;15.48;;;;;;;;;;5076175;28;20024;-77
2021/11/16 12:56:26;;;;;;;20.75;14.32;;;;;;;;;;5094277;28;20103;-76
2021/11/16 12:58:54;;;;;;;23.20;15.02;;;;;;;;;;5076009;28;20112;-78
2021/11/16 13:01:38;;;;;;;20.80;14.38;;;;;;;;;;5094141;28;20158;-76
2021/11/16 13:04:08;;;;;;;21.77;14.60;;;;;;;;;;5075981;28;20032;-77
2021/11/16 13:06:38;;;;;;;19.83;14.23;;;;;;;;;;5075923;28;20475;-75
2021/11/16 13:09:04;;;;;;;19.50;13.82;;;;;;;;;;5094064;28;20024;-75
2021/11/16 13:11:45;;;;;;;21.73;14.40;;;;;;;;;;5093843;28;20487;-75
2021/11/16 13:14:12;;;;;;;19.27;14.32;;;;;;;;;;5093870;28;20032;-75
2021/11/16 13:16:39;;;;;;;19.00;13.93;;;;;;;;;;5093756;28;20013;-71
2021/11/16 13:19:05;;;;;;;19.50;13.13;;;;;;;;;;5075389;28;20024;-75
2021/11/16 13:21:37;;;;;;;20.67;14.30;;;;;;;;;;5093670;28;20039;-76
2021/11/16 13:24:05;;;;;;;21.02;13.27;;;;;;;;;;5093833;28;20027;-76
2021/11/16 13:26:33;;;;;;;18.02;13.00;;;;;;;;;;5093623;28;20031;-74
2021/11/16 13:31:32;;;;;;;20.67;12.38;;;;;;;;;;5093473;28;20016;-75
2021/11/16 13:33:58;;;;;;;24.10;13.75;;;;;;;;;;5075229;28;20033;-76
2021/11/16 13:36:30;;;;;;;21.10;14.15;;;;;;;;;;5075373;28;20407;-75
2021/11/16 13:39:05;;;;;;;20.58;13.57;;;;;;;;;;5092488;28;20051;-75
2021/11/16 13:41:40;;;;;;;20.65;14.60;;;;;;;;;;5100742;28;20117;-73
2021/11/16 13:44:14;;;;;;;19.92;13.43;;;;;;;;;;5094918;28;20106;-71
2021/11/16 13:46:41;;;;;;;20.85;14.40;;;;;;;;;;5080466;28;20031;-73
2021/11/16 13:49:08;;;;;;;18.90;12.93;;;;;;;;;;5093833;28;20052;-73
2021/11/16 13:51:35;;;;;;;22.02;13.50;;;;;;;;;;5091265;28;20480;-74
2021/11/16 13:54:01;;;;;;;18.92;13.45;;;;;;;;;;5094836;28;20023;-75
2021/11/16 13:56:31;;;;;;;21.55;14.20;;;;;;;;;;5095173;28;20019;-75
2021/11/16 13:58:58;;;;;;;22.23;14.13;;;;;;;;;;5095001;28;20031;-71
2021/11/16 14:01:31;;;;;;;22.33;14.77;;;;;;;;;;5113294;28;20348;-75
2021/11/16 14:04:18;;;;;;;20.13;13.27;;;;;;;;;;5113299;28;20092;-74
2021/11/16 14:06:45;;;;;;;23.75;14.75;;;;;;;;;;5113004;28;20099;-74
2021/11/16 14:09:18;;;;;;;21.38;12.18;;;;;;;;;;5094627;28;20068;-74
2021/11/16 14:11:55;;;;;;;18.00;12.93;;;;;;;;;;5094748;28;20032;-75
2021/11/16 14:14:21;;;;;;;18.13;12.15;;;;;;;;;;5094737;28;20379;-75
2021/11/16 14:16:48;;;;;;;22.48;15.20;;;;;;;;;;5112990;28;20019;-75
2021/11/16 14:19:16;;;;;;;19.88;13.10;;;;;;;;;;5113016;28;20039;-75
2021/11/16 14:21:44;;;;;;;19.70;13.77;;;;;;;;;;5112701;28;20058;-75
2021/11/16 14:24:11;;;;;;;19.95;13.85;;;;;;;;;;5112921;28;20049;-76
2021/11/16 14:26:37;;;;;;;19.48;13.55;;;;;;;;;;5112895;28;20524;-74
2021/11/16 14:29:05;;;;;;;20.17;13.32;;;;;;;;;;5112928;28;20641;-75
2021/11/16 14:31:33;;;;;;;21.33;13.45;;;;;;;;;;5112596;28;20024;-75
2021/11/16 14:34:04;;;;;;;19.35;14.07;;;;;;;;;;5094337;28;20034;-72
2021/11/16 14:36:32;;;;;;;20.17;14.13;;;;;;;;;;5112549;28;20028;-71
2021/11/16 14:39:08;;;;;;;19.15;13.00;;;;;;;;;;5093984;28;20044;-73
2021/11/16 14:41:40;;;;;;;28.48;15.70;;;;;;;;;;5112366;28;20027;-74
2021/11/16 14:44:07;;;;;;;20.58;14.27;;;;;;;;;;5112435;28;20048;-73
2021/11/16 14:46:35;;;;;;;20.63;13.90;;;;;;;;;;5094195;28;20110;-74